createdAt,value
2019-05-05T00:00:16.685Z,3.94
2019-05-05T00:02:52.097Z,3.90
2019-05-05T00:05:28.000Z,3.69
2019-05-05T00:07:57.284Z,3.65
2019-05-05T00:10:54.157Z,3.59
2019-05-05T00:13:34.658Z,3.50
2019-05-05T00:16:21.540Z,3.82
2019-05-05T00:18:51.853Z,3.66
2019-05-05T00:21:20.823Z,3.64
2019-05-05T00:23:50.125Z,3.48
2019-05-05T00:26:18.769Z,3.49
2019-05-05T00:28:48.034Z,3.69
2019-05-05T00:31:16.646Z,3.71
2019-05-05T00:33:45.999Z,3.81
2019-05-05T00:36:15.017Z,3.86
2019-05-05T00:38:44.535Z,3.89
2019-05-05T00:41:14.817Z,3.82
2019-05-05T00:43:45.121Z,3.70
2019-05-05T00:46:20.497Z,3.65
2019-05-05T00:48:49.380Z,3.53
2019-05-05T00:51:18.269Z,3.67
2019-05-05T00:53:47.265Z,3.86
2019-05-05T00:56:16.566Z,3.68
2019-05-05T00:58:50.750Z,3.85
2019-05-05T01:01:30.062Z,3.83
2019-05-05T01:03:59.348Z,3.67
2019-05-05T01:06:29.558Z,3.57
2019-05-05T01:08:58.145Z,3.62
2019-05-05T01:11:26.852Z,3.87
2019-05-05T01:13:55.461Z,3.95
2019-05-05T01:16:24.883Z,3.70
2019-05-05T01:18:55.384Z,3.62
2019-05-05T01:21:24.598Z,3.88
2019-05-05T01:23:54.857Z,3.58
2019-05-05T01:26:24.875Z,3.46
2019-05-05T01:28:56.159Z,3.50
2019-05-05T01:31:25.271Z,3.40
2019-05-05T01:34:05.012Z,3.21
2019-05-05T01:36:34.531Z,3.25
2019-05-05T01:39:21.683Z,3.22
2019-05-05T01:41:54.341Z,3.24
2019-05-05T01:44:24.646Z,2.92
2019-05-05T01:46:55.023Z,2.81
2019-05-05T01:49:25.213Z,2.92
2019-05-05T01:51:55.269Z,2.94
2019-05-05T01:54:25.050Z,2.75
2019-05-05T01:56:55.367Z,2.88
2019-05-05T01:59:25.177Z,2.93
2019-05-05T02:01:55.070Z,2.97
2019-05-05T02:04:25.005Z,2.93
2019-05-05T02:06:55.094Z,2.91
2019-05-05T02:09:24.910Z,2.76
2019-05-05T02:11:54.767Z,2.80
2019-05-05T02:14:24.777Z,2.84
2019-05-05T02:16:54.649Z,2.83
2019-05-05T02:19:25.058Z,2.94
2019-05-05T02:21:54.884Z,2.94
2019-05-05T02:24:25.112Z,2.99
2019-05-05T02:26:54.684Z,3.11
2019-05-05T02:29:39.002Z,3.17
2019-05-05T02:32:20.418Z,3.22
2019-05-05T02:34:56.382Z,3.13
2019-05-05T02:37:25.613Z,3.17
2019-05-05T02:40:02.327Z,3.08
2019-05-05T02:42:26.948Z,3.09
2019-05-05T02:44:57.781Z,3.04
2019-05-05T02:47:37.196Z,3.03
2019-05-05T02:50:09.083Z,3.20
2019-05-05T02:52:39.492Z,3.18
2019-05-05T02:55:08.905Z,3.12
2019-05-05T02:57:37.944Z,3.14
2019-05-05T03:00:17.815Z,3.23
2019-05-05T03:02:46.610Z,3.15
2019-05-05T03:05:15.633Z,3.06
2019-05-05T03:07:44.632Z,2.97
2019-05-05T03:10:14.116Z,2.97
2019-05-05T03:12:43.980Z,2.99
2019-05-05T03:15:19.599Z,3.15
2019-05-05T03:17:48.695Z,3.18
2019-05-05T03:20:17.581Z,3.22
2019-05-05T03:22:46.576Z,3.48
2019-05-05T03:25:15.569Z,3.93
2019-05-05T03:27:44.579Z,4.30
2019-05-05T03:30:15.443Z,4.48
2019-05-05T03:32:45.575Z,4.41
2019-05-05T03:35:14.500Z,4.27
2019-05-05T03:37:44.611Z,4.22
2019-05-05T03:40:20.795Z,4.22
2019-05-05T03:43:04.297Z,4.26
2019-05-05T03:45:46.532Z,4.37
2019-05-05T03:48:15.161Z,4.44
2019-05-05T03:50:44.690Z,4.51
2019-05-05T03:53:14.010Z,4.59
2019-05-05T03:55:44.084Z,4.58
2019-05-05T03:58:14.660Z,4.56
2019-05-05T04:01:27.625Z,4.57
2019-05-05T04:04:15.649Z,4.58
2019-05-05T04:06:44.603Z,4.59
2019-05-05T04:09:13.829Z,4.54
2019-05-05T04:11:44.373Z,4.62
2019-05-05T04:14:14.333Z,4.72
2019-05-05T04:17:03.484Z,4.61
2019-05-05T04:19:34.290Z,4.61
2019-05-05T04:22:04.252Z,4.76
2019-05-05T04:27:04.005Z,4.92
2019-05-05T04:29:34.509Z,4.98
2019-05-05T04:32:04.609Z,4.93
2019-05-05T04:34:34.805Z,4.88
2019-05-05T04:37:04.296Z,5.13
2019-05-05T04:39:34.275Z,5.15
2019-05-05T04:42:04.794Z,5.15
2019-05-05T04:44:34.575Z,5.23
2019-05-05T04:47:10.130Z,5.09
2019-05-05T04:49:45.347Z,5.15
2019-05-05T04:52:15.311Z,5.22
2019-05-05T04:54:52.447Z,5.45
2019-05-05T04:57:21.107Z,5.45
2019-05-05T04:59:53.875Z,5.57
2019-05-05T05:02:30.459Z,5.77
2019-05-05T05:05:04.103Z,5.77
2019-05-05T05:07:34.480Z,6.06
2019-05-05T05:10:04.453Z,6.06
2019-05-05T05:12:34.196Z,6.25
2019-05-05T05:15:04.428Z,6.26
2019-05-05T05:17:44.327Z,6.33
2019-05-05T05:20:14.127Z,6.33
2019-05-05T05:22:43.971Z,6.40
2019-05-05T05:25:13.644Z,6.53
2019-05-05T05:27:44.319Z,6.53
2019-05-05T05:30:13.750Z,6.74
2019-05-05T05:32:44.593Z,6.74
2019-05-05T05:35:14.093Z,6.74
2019-05-05T05:37:44.831Z,6.83
2019-05-05T05:40:19.336Z,6.82
2019-05-05T05:42:48.043Z,6.92
2019-05-05T05:45:26.951Z,6.92
2019-05-05T05:48:10.567Z,6.92
2019-05-05T05:50:44.349Z,6.97
2019-05-05T05:53:14.011Z,7.05
2019-05-05T05:55:44.808Z,7.00
2019-05-05T05:58:14.176Z,7.20
2019-05-05T06:00:44.255Z,7.28
2019-05-05T06:03:14.107Z,7.17
2019-05-05T06:05:43.799Z,7.12
2019-05-05T06:08:14.233Z,7.11
2019-05-05T06:10:44.406Z,7.33
2019-05-05T06:13:15.237Z,7.37
2019-05-05T06:15:44.568Z,7.17
2019-05-05T06:18:14.017Z,7.45
2019-05-05T06:20:44.566Z,7.44
2019-05-05T06:23:14.702Z,7.25
2019-05-05T06:25:44.598Z,7.21
2019-05-05T06:28:14.508Z,7.38
2019-05-05T06:30:44.359Z,7.17
2019-05-05T06:33:13.790Z,7.43
2019-05-05T06:35:44.375Z,7.49
2019-05-05T06:38:13.746Z,7.17
2019-05-05T06:40:55.230Z,7.02
2019-05-05T06:43:44.118Z,7.04
2019-05-05T06:46:15.177Z,6.99
2019-05-05T06:48:43.968Z,6.83
2019-05-05T06:51:14.071Z,6.83
2019-05-05T06:53:43.530Z,6.89
2019-05-05T06:56:14.534Z,6.77
2019-05-05T06:58:44.832Z,6.80
2019-05-05T07:01:14.423Z,6.75
2019-05-05T07:03:43.966Z,6.71
2019-05-05T07:06:14.608Z,6.76
2019-05-05T07:08:43.974Z,6.76
2019-05-05T07:11:14.548Z,6.83
2019-05-05T07:13:44.406Z,6.91
2019-05-05T07:16:15.016Z,7.25
2019-05-05T07:18:44.684Z,7.46
2019-05-05T07:21:14.250Z,7.78
2019-05-05T07:23:44.503Z,8.03
2019-05-05T07:26:14.359Z,8.32
2019-05-05T07:28:44.717Z,8.59
2019-05-05T07:31:14.304Z,8.96
2019-05-05T07:33:43.766Z,9.19
2019-05-05T07:36:50.427Z,9.12
2019-05-05T07:39:19.317Z,9.03
2019-05-05T07:41:47.920Z,8.88
2019-05-05T07:44:26.640Z,8.79
2019-05-05T07:46:47.352Z,8.52
2019-05-05T07:49:16.349Z,8.52
2019-05-05T07:51:45.622Z,8.40
2019-05-05T07:54:14.814Z,8.40
2019-05-05T07:56:44.394Z,8.60
2019-05-05T07:59:14.575Z,8.72
2019-05-05T08:01:46.571Z,8.90
2019-05-05T08:04:14.261Z,9.16
2019-05-05T08:06:44.537Z,9.30
2019-05-05T08:09:14.599Z,9.50
2019-05-05T08:11:43.803Z,9.64
2019-05-05T08:14:14.565Z,9.80
2019-05-05T08:17:04.125Z,10.04
2019-05-05T08:19:48.708Z,9.86
2019-05-05T08:22:17.973Z,9.76
2019-05-05T08:25:05.732Z,9.47
2019-05-05T08:28:04.423Z,9.59
2019-05-05T08:30:54.463Z,9.59
2019-05-05T08:33:24.114Z,9.72
2019-05-05T08:35:54.145Z,10.04
2019-05-05T08:38:24.303Z,10.10
2019-05-05T08:40:54.373Z,10.25
2019-05-05T08:43:24.178Z,10.08
2019-05-05T08:45:55.429Z,9.94
2019-05-05T08:48:24.672Z,10.21
2019-05-05T08:50:54.163Z,10.28
2019-05-05T08:53:24.303Z,10.27
2019-05-05T08:55:54.657Z,10.36
2019-05-05T08:58:23.833Z,10.29
2019-05-05T09:00:53.673Z,10.43
2019-05-05T09:03:24.272Z,10.72
2019-05-05T09:05:54.330Z,10.59
2019-05-05T09:08:24.150Z,10.26
2019-05-05T09:10:55.181Z,10.38
2019-05-05T09:13:24.725Z,10.55
2019-05-05T09:15:54.403Z,10.82
2019-05-05T09:18:24.625Z,10.76
2019-05-05T09:20:53.830Z,11.09
2019-05-05T09:23:24.032Z,11.09
2019-05-05T09:26:11.063Z,10.91
2019-05-05T09:28:59.006Z,10.80
2019-05-05T09:31:28.196Z,10.78
2019-05-05T09:33:57.193Z,10.81
2019-05-05T09:36:26.188Z,11.06
2019-05-05T09:38:55.183Z,11.04
2019-05-05T09:41:23.819Z,11.03
2019-05-05T09:43:53.929Z,11.13
2019-05-05T09:46:23.555Z,11.11
2019-05-05T09:48:54.128Z,11.32
2019-05-05T09:51:24.157Z,11.18
2019-05-05T09:53:54.241Z,10.81
2019-05-05T09:56:23.671Z,11.07
2019-05-05T09:58:54.461Z,11.02
2019-05-05T10:01:24.550Z,11.21
2019-05-05T10:03:55.877Z,11.66
2019-05-05T10:06:24.857Z,11.68
2019-05-05T10:08:53.901Z,11.57
2019-05-05T10:11:23.830Z,12.00
2019-05-05T10:13:54.629Z,12.52
2019-05-05T10:16:23.702Z,12.96
2019-05-05T10:18:54.214Z,13.16
2019-05-05T10:21:24.609Z,13.05
2019-05-05T10:23:55.090Z,13.86
2019-05-05T10:26:24.157Z,13.82
2019-05-05T10:28:53.731Z,13.79
2019-05-05T10:31:24.126Z,14.60
2019-05-05T10:33:57.825Z,14.20
2019-05-05T10:36:27.116Z,13.83
2019-05-05T10:39:00.631Z,14.35
2019-05-05T10:41:29.613Z,14.47
2019-05-05T10:43:58.217Z,14.29
2019-05-05T10:46:27.190Z,14.27
2019-05-05T10:48:56.127Z,13.98
2019-05-05T10:51:24.747Z,13.90
2019-05-05T10:53:54.480Z,14.05
2019-05-05T10:56:24.190Z,13.68
2019-05-05T10:58:54.566Z,13.68
2019-05-05T11:01:23.719Z,13.79
2019-05-05T11:03:52.801Z,14.33
2019-05-05T11:06:21.546Z,13.98
2019-05-05T11:08:50.150Z,14.11
2019-05-05T11:11:19.074Z,14.39
2019-05-05T11:13:48.078Z,15.14
2019-05-05T11:16:16.766Z,14.61
2019-05-05T11:18:45.501Z,15.52
2019-05-05T11:21:14.580Z,15.54
2019-05-05T11:23:44.821Z,14.71
2019-05-05T11:26:14.457Z,14.95
2019-05-05T11:28:44.532Z,15.10
2019-05-05T11:31:13.837Z,15.22
2019-05-05T11:33:56.610Z,15.50
2019-05-05T11:36:29.017Z,14.69
2019-05-05T11:38:57.970Z,14.57
2019-05-05T11:41:26.857Z,13.84
2019-05-05T11:43:56.054Z,14.21
2019-05-05T11:46:24.878Z,13.29
2019-05-05T11:48:54.520Z,13.59
2019-05-05T11:51:24.962Z,13.36
2019-05-05T11:53:54.206Z,13.73
2019-05-05T11:56:23.176Z,14.46
2019-05-05T11:58:52.194Z,14.42
2019-05-05T12:01:21.058Z,14.50
2019-05-05T12:03:50.258Z,14.01
2019-05-05T12:06:19.174Z,14.79
2019-05-05T12:08:48.165Z,15.37
2019-05-05T12:11:17.139Z,15.69
2019-05-05T12:13:46.439Z,14.64
2019-05-05T12:16:30.171Z,14.76
2019-05-05T12:18:59.415Z,14.65
2019-05-05T12:21:28.428Z,14.09
2019-05-05T12:23:58.270Z,13.29
2019-05-05T12:26:49.398Z,13.44
2019-05-05T12:29:25.113Z,14.24
2019-05-05T12:31:54.252Z,14.50
2019-05-05T12:34:23.669Z,14.20
2019-05-05T12:36:53.910Z,13.82
2019-05-05T12:39:23.171Z,14.45
2019-05-05T12:41:54.083Z,14.37
2019-05-05T12:44:27.491Z,13.71
2019-05-05T12:47:14.428Z,13.09
2019-05-05T12:49:43.975Z,12.91
2019-05-05T12:52:13.876Z,13.02
2019-05-05T12:54:44.090Z,13.18
2019-05-05T12:57:13.871Z,13.67
2019-05-05T12:59:44.378Z,13.68
2019-05-05T13:02:14.285Z,13.68
2019-05-05T13:04:43.314Z,13.89
2019-05-05T13:07:13.628Z,14.70
2019-05-05T13:09:44.104Z,15.31
2019-05-05T13:12:15.065Z,15.45
2019-05-05T13:14:44.620Z,15.30
2019-05-05T13:17:14.266Z,14.93
2019-05-05T13:20:08.622Z,14.69
2019-05-05T13:22:57.216Z,14.80
2019-05-05T13:25:56.029Z,14.27
2019-05-05T13:28:18.022Z,14.76
2019-05-05T13:30:46.982Z,15.09
2019-05-05T13:33:15.618Z,15.43
2019-05-05T13:35:44.659Z,15.67
2019-05-05T13:38:14.557Z,16.16
2019-05-05T13:40:43.929Z,16.22
2019-05-05T13:43:14.485Z,16.06
2019-05-05T13:45:49.926Z,15.62
2019-05-05T13:48:18.848Z,16.40
2019-05-05T13:50:50.248Z,16.62
2019-05-05T13:53:19.188Z,17.89
2019-05-05T13:55:48.702Z,17.72
2019-05-05T13:58:17.614Z,16.76
2019-05-05T14:00:46.684Z,17.13
2019-05-05T14:03:15.293Z,17.31
2019-05-05T14:05:44.159Z,16.54
2019-05-05T14:08:14.693Z,17.11
2019-05-05T14:10:43.889Z,17.02
2019-05-05T14:13:12.509Z,16.13
2019-05-05T14:15:41.466Z,16.75
2019-05-05T14:18:10.373Z,16.59
2019-05-05T14:20:39.559Z,15.94
2019-05-05T14:23:08.223Z,16.14
2019-05-05T14:25:37.133Z,15.55
2019-05-05T14:28:06.328Z,16.16
2019-05-05T14:30:50.184Z,15.41
2019-05-05T14:33:23.561Z,16.40
2019-05-05T14:36:20.925Z,17.14
2019-05-05T14:38:53.913Z,16.98
2019-05-05T14:41:22.785Z,17.78
2019-05-05T14:43:53.959Z,17.52
2019-05-05T14:46:23.498Z,18.25
2019-05-05T14:48:53.507Z,17.74
2019-05-05T14:51:22.696Z,17.65
2019-05-05T14:53:54.112Z,16.76
2019-05-05T14:56:35.365Z,15.80
2019-05-05T14:58:54.293Z,15.15
2019-05-05T15:01:24.726Z,14.70
2019-05-05T15:03:53.598Z,14.43
2019-05-05T15:06:35.155Z,13.88
2019-05-05T15:09:24.665Z,14.03
2019-05-05T15:12:11.457Z,13.86
2019-05-05T15:14:40.348Z,13.57
2019-05-05T15:17:09.040Z,13.87
2019-05-05T15:19:38.026Z,13.90
2019-05-05T15:22:06.734Z,14.16
2019-05-05T15:24:35.345Z,14.28
2019-05-05T15:27:06.100Z,13.87
2019-05-05T15:29:35.338Z,13.50
2019-05-05T15:32:04.453Z,13.64
2019-05-05T15:34:34.376Z,13.71
2019-05-05T15:37:03.998Z,13.63
2019-05-05T15:39:33.632Z,13.48
2019-05-05T15:42:04.467Z,13.54
2019-05-05T15:44:34.443Z,13.11
2019-05-05T15:47:03.326Z,13.01
2019-05-05T15:49:32.300Z,12.58
2019-05-05T15:52:01.191Z,13.18
2019-05-05T15:54:29.812Z,14.01
2019-05-05T15:57:05.405Z,14.04
2019-05-05T15:59:29.124Z,13.52
2019-05-05T16:01:58.087Z,13.39
2019-05-05T16:04:27.080Z,12.66
2019-05-05T16:06:56.003Z,12.32
2019-05-05T16:09:25.683Z,12.23
2019-05-05T16:11:54.705Z,12.03
2019-05-05T16:14:23.929Z,12.38
2019-05-05T16:17:14.942Z,12.87
2019-05-05T16:19:55.832Z,13.90
2019-05-05T16:22:30.892Z,14.13
2019-05-05T16:25:14.107Z,13.92
2019-05-05T16:27:44.638Z,13.72
2019-05-05T16:30:16.049Z,13.19
2019-05-05T16:32:45.098Z,13.01
2019-05-05T16:35:14.488Z,12.63
2019-05-05T16:37:44.026Z,12.47
2019-05-05T16:40:14.438Z,12.26
2019-05-05T16:42:43.942Z,12.36
2019-05-05T16:45:16.186Z,12.91
2019-05-05T16:47:44.452Z,12.83
2019-05-05T16:50:13.855Z,13.04
2019-05-05T16:52:48.132Z,13.73
2019-05-05T16:55:28.582Z,13.65
2019-05-05T16:57:57.136Z,13.69
2019-05-05T17:00:26.420Z,13.68
2019-05-05T17:02:55.374Z,13.74
2019-05-05T17:05:24.156Z,13.58
2019-05-05T17:07:55.423Z,13.60
2019-05-05T17:10:24.423Z,13.89
2019-05-05T17:12:53.690Z,13.56
2019-05-05T17:15:46.848Z,13.24
2019-05-05T17:18:54.071Z,13.12
2019-05-05T17:21:30.799Z,13.14
2019-05-05T17:23:59.609Z,12.74
2019-05-05T17:26:28.582Z,12.66
2019-05-05T17:28:57.890Z,12.85
2019-05-05T17:31:26.797Z,12.85
2019-05-05T17:33:55.722Z,12.84
2019-05-05T17:36:25.260Z,12.35
2019-05-05T17:38:54.495Z,12.52
2019-05-05T17:41:51.207Z,12.47
2019-05-05T17:44:27.402Z,12.06
2019-05-05T17:47:00.678Z,11.81
2019-05-05T17:49:55.886Z,11.35
2019-05-05T17:52:55.963Z,10.99
2019-05-05T17:55:44.426Z,10.95
2019-05-05T17:58:13.732Z,10.83
2019-05-05T18:00:54.471Z,10.73
2019-05-05T18:03:26.618Z,10.79
2019-05-05T18:06:18.368Z,10.82
2019-05-05T18:08:50.867Z,10.71
2019-05-05T18:11:25.426Z,10.56
2019-05-05T18:14:03.928Z,10.40
2019-05-05T18:16:33.909Z,10.35
2019-05-05T18:19:04.497Z,10.26
2019-05-05T18:21:34.763Z,10.21
2019-05-05T18:24:03.908Z,10.11
2019-05-05T18:26:34.044Z,9.98
2019-05-05T18:29:03.952Z,10.03
2019-05-05T18:31:33.664Z,10.08
2019-05-05T18:34:03.950Z,10.00
2019-05-05T18:36:33.087Z,9.99
2019-05-05T18:39:02.085Z,9.89
2019-05-05T18:41:36.748Z,9.90
2019-05-05T18:44:16.771Z,9.94
2019-05-05T18:46:45.737Z,9.92
2019-05-05T18:49:14.785Z,9.82
2019-05-05T18:51:44.033Z,9.80
2019-05-05T18:54:12.764Z,9.89
2019-05-05T18:56:41.368Z,9.86
2019-05-05T18:59:10.008Z,9.72
2019-05-05T19:02:01.378Z,9.63
2019-05-05T19:04:38.196Z,9.46
2019-05-05T19:07:17.749Z,9.42
2019-05-05T19:09:53.868Z,9.34
2019-05-05T19:12:17.760Z,9.24
2019-05-05T19:14:46.756Z,9.25
2019-05-05T19:17:15.645Z,9.14
2019-05-05T19:19:47.769Z,9.18
2019-05-05T19:22:16.708Z,9.05
2019-05-05T19:24:45.829Z,8.95
2019-05-05T19:27:15.001Z,8.98
2019-05-05T19:29:46.235Z,8.98
2019-05-05T19:32:15.167Z,8.97
2019-05-05T19:34:55.055Z,8.97
2019-05-05T19:37:33.528Z,9.04
2019-05-05T19:40:06.083Z,8.95
2019-05-05T19:42:37.897Z,8.83
2019-05-05T19:45:12.625Z,8.93
2019-05-05T19:47:43.912Z,8.89
2019-05-05T19:50:36.360Z,8.96
2019-05-05T19:53:06.710Z,8.91
2019-05-05T19:55:36.497Z,8.84
2019-05-05T19:58:05.208Z,8.78
2019-05-05T20:00:35.157Z,8.78
2019-05-05T20:03:17.946Z,8.79
2019-05-05T20:05:35.459Z,8.65
2019-05-05T20:08:05.672Z,8.64
2019-05-05T20:10:34.855Z,8.65
2019-05-05T20:13:05.213Z,8.59
2019-05-05T20:15:44.284Z,8.59
2019-05-05T20:18:14.217Z,8.53
2019-05-05T20:20:44.494Z,8.45
2019-05-05T20:23:14.269Z,8.46
2019-05-05T20:25:44.790Z,8.46
2019-05-05T20:28:14.525Z,8.41
2019-05-05T20:30:43.421Z,8.31
2019-05-05T20:33:19.244Z,8.42
2019-05-05T20:35:51.245Z,8.28
2019-05-05T20:38:30.248Z,8.23
2019-05-05T20:41:14.272Z,8.27
2019-05-05T20:43:44.843Z,8.23
2019-05-05T20:46:14.126Z,8.19
2019-05-05T20:48:44.678Z,8.14
2019-05-05T20:51:13.956Z,8.04
2019-05-05T20:53:45.163Z,8.16
2019-05-05T20:56:14.936Z,8.14
2019-05-05T20:58:44.155Z,8.18
2019-05-05T21:01:14.002Z,8.28
2019-05-05T21:03:43.223Z,8.21
2019-05-05T21:06:13.878Z,8.23
2019-05-05T21:08:44.018Z,8.07
2019-05-05T21:11:14.159Z,7.97
2019-05-05T21:13:45.158Z,7.76
2019-05-05T21:16:14.469Z,7.68
2019-05-05T21:18:43.092Z,7.76
2019-05-05T21:21:16.858Z,7.63
2019-05-05T21:23:50.331Z,7.65
2019-05-05T21:26:24.342Z,7.57
2019-05-05T21:28:53.859Z,7.62
2019-05-05T21:31:23.952Z,7.55
2019-05-05T21:33:54.792Z,7.50
2019-05-05T21:36:24.395Z,7.50
2019-05-05T21:38:54.852Z,7.50
2019-05-05T21:41:24.516Z,7.53
2019-05-05T21:43:54.112Z,7.47
2019-05-05T21:46:23.998Z,7.38
2019-05-05T21:48:54.342Z,7.40
2019-05-05T21:51:34.995Z,7.26
2019-05-05T21:54:23.549Z,7.17
2019-05-05T21:57:04.254Z,7.13
2019-05-05T21:59:33.734Z,6.98
2019-05-05T22:02:03.953Z,7.04
2019-05-05T22:04:33.779Z,7.07
2019-05-05T22:07:03.757Z,7.01
2019-05-05T22:09:32.839Z,6.93
2019-05-05T22:12:04.013Z,6.95
2019-05-05T22:14:34.006Z,6.94
2019-05-05T22:17:04.106Z,6.81
2019-05-05T22:19:35.418Z,6.75
2019-05-05T22:22:07.130Z,6.76
2019-05-05T22:24:36.116Z,6.62
2019-05-05T22:27:04.815Z,6.70
2019-05-05T22:29:34.219Z,6.57
2019-05-05T22:32:06.001Z,6.60
2019-05-05T22:34:33.715Z,6.66
2019-05-05T22:37:05.769Z,6.52
2019-05-05T22:39:33.968Z,6.52
2019-05-05T22:42:04.701Z,6.51
2019-05-05T22:44:34.013Z,6.53
2019-05-05T22:47:04.635Z,6.52
2019-05-05T22:49:33.308Z,6.45
2019-05-05T22:52:03.834Z,6.56
2019-05-05T22:54:35.009Z,6.49
2019-05-05T22:57:04.578Z,6.49
2019-05-05T22:59:33.673Z,6.40
2019-05-05T23:02:03.969Z,6.39
2019-05-05T23:04:43.835Z,6.35
2019-05-05T23:07:23.951Z,6.35
2019-05-05T23:09:53.882Z,6.36
2019-05-05T23:12:24.379Z,6.18
2019-05-05T23:14:54.500Z,6.22
2019-05-05T23:17:29.491Z,6.19
2019-05-05T23:20:05.337Z,6.20
2019-05-05T23:22:41.085Z,6.20
2019-05-05T23:25:16.066Z,6.24
2019-05-05T23:27:48.108Z,6.24
2019-05-05T23:30:18.001Z,6.06
2019-05-05T23:32:47.147Z,6.06
2019-05-05T23:35:16.054Z,6.11
2019-05-05T23:37:45.772Z,6.03
2019-05-05T23:40:24.604Z,6.04
2019-05-05T23:42:54.346Z,6.03
2019-05-05T23:45:24.868Z,6.12
2019-05-05T23:47:54.796Z,6.04
2019-05-05T23:50:23.823Z,6.04
2019-05-05T23:52:54.417Z,5.99
2019-05-05T23:55:24.346Z,6.11
2019-05-05T23:57:54.782Z,6.08
